createdAt,value
2019-05-29T00:00:50.044Z,929.05
2019-05-29T00:01:49.888Z,929.10
2019-05-29T00:02:49.871Z,929.08
2019-05-29T00:03:49.833Z,929.08
2019-05-29T00:04:49.813Z,929.05
2019-05-29T00:05:49.789Z,929.09
2019-05-29T00:06:49.780Z,929.07
2019-05-29T00:07:49.751Z,929.07
2019-05-29T00:08:49.738Z,929.03
2019-05-29T00:09:49.683Z,929.00
2019-05-29T00:10:49.689Z,929.03
2019-05-29T00:11:49.660Z,929.02
2019-05-29T00:12:49.638Z,929.00
2019-05-29T00:13:49.620Z,929.03
2019-05-29T00:14:49.605Z,929.06
2019-05-29T00:15:49.600Z,929.03
2019-05-29T00:16:49.552Z,929.09
2019-05-29T00:17:49.532Z,929.09
2019-05-29T00:18:49.509Z,929.12
2019-05-29T00:19:49.489Z,929.17
2019-05-29T00:20:49.460Z,929.19
2019-05-29T00:21:49.440Z,929.17
2019-05-29T00:22:49.412Z,929.22
2019-05-29T00:23:49.395Z,929.23
2019-05-29T00:24:49.375Z,929.29
2019-05-29T00:25:49.346Z,929.31
2019-05-29T00:26:49.328Z,929.40
2019-05-29T00:27:49.313Z,929.41
2019-05-29T00:28:49.264Z,929.46
2019-05-29T00:29:49.255Z,929.51
2019-05-29T00:30:49.250Z,929.49
2019-05-29T00:31:49.208Z,929.58
2019-05-29T00:32:49.272Z,929.63
2019-05-29T00:33:49.170Z,929.71
2019-05-29T00:34:49.148Z,929.77
2019-05-29T00:35:49.126Z,929.82
2019-05-29T00:36:49.105Z,929.85
2019-05-29T00:37:49.092Z,929.89
2019-05-29T00:38:49.065Z,929.90
2019-05-29T00:39:49.039Z,929.98
2019-05-29T00:40:49.013Z,930.02
2019-05-29T00:41:48.986Z,930.09
2019-05-29T00:42:48.971Z,930.10
2019-05-29T00:43:48.926Z,930.17
2019-05-29T00:44:48.905Z,930.13
2019-05-29T00:45:48.882Z,930.20
2019-05-29T00:46:48.886Z,930.20
2019-05-29T00:47:48.856Z,930.18
2019-05-29T00:48:48.833Z,930.24
2019-05-29T00:49:48.792Z,930.23
2019-05-29T00:50:48.770Z,930.26
2019-05-29T00:51:48.772Z,930.26
2019-05-29T00:52:48.721Z,930.26
2019-05-29T00:53:48.704Z,930.26
2019-05-29T00:54:48.700Z,930.31
2019-05-29T00:55:48.675Z,930.37
2019-05-29T00:56:48.635Z,930.38
2019-05-29T00:57:48.637Z,930.45
2019-05-29T00:58:48.605Z,930.33
2019-05-29T00:59:48.582Z,930.45
2019-05-29T01:00:48.570Z,930.45
2019-05-29T01:01:48.541Z,930.47
2019-05-29T01:02:48.542Z,930.45
2019-05-29T01:03:48.504Z,930.57
2019-05-29T01:04:48.476Z,930.57
2019-05-29T01:05:48.629Z,930.57
2019-05-29T01:06:48.424Z,930.65
2019-05-29T01:07:48.403Z,930.69
2019-05-29T01:08:48.383Z,930.77
2019-05-29T01:09:48.340Z,930.78
2019-05-29T01:10:48.323Z,930.82
2019-05-29T01:11:48.293Z,930.76
2019-05-29T01:12:48.295Z,930.73
2019-05-29T01:13:48.266Z,930.75
2019-05-29T01:14:50.456Z,930.77
2019-05-29T01:15:48.230Z,930.81
2019-05-29T01:16:48.200Z,930.83
2019-05-29T01:17:48.181Z,930.89
2019-05-29T01:18:48.161Z,930.96
2019-05-29T01:19:48.137Z,931.00
2019-05-29T01:20:48.110Z,931.00
2019-05-29T01:21:48.090Z,931.15
2019-05-29T01:22:48.068Z,931.03
2019-05-29T01:23:48.044Z,931.19
2019-05-29T01:24:48.027Z,931.04
2019-05-29T01:25:48.004Z,931.02
2019-05-29T01:26:47.974Z,931.00
2019-05-29T01:27:47.952Z,930.96
2019-05-29T01:28:47.929Z,931.04
2019-05-29T01:29:47.892Z,930.91
2019-05-29T01:30:51.331Z,930.87
2019-05-29T01:31:47.870Z,930.81
2019-05-29T01:32:47.839Z,930.81
2019-05-29T01:33:47.801Z,930.84
2019-05-29T01:34:47.797Z,930.85
2019-05-29T01:35:47.756Z,930.81
2019-05-29T01:36:47.746Z,930.74
2019-05-29T01:37:47.726Z,930.71
2019-05-29T01:38:47.699Z,930.68
2019-05-29T01:39:47.665Z,930.58
2019-05-29T01:40:47.659Z,930.52
2019-05-29T01:41:47.640Z,930.56
2019-05-29T01:42:49.904Z,930.51
2019-05-29T01:43:47.593Z,930.47
2019-05-29T01:44:47.556Z,930.45
2019-05-29T01:45:47.543Z,930.40
2019-05-29T01:46:47.524Z,930.35
2019-05-29T01:47:47.494Z,930.33
2019-05-29T01:48:47.479Z,930.27
2019-05-29T01:49:47.455Z,930.30
2019-05-29T01:50:47.434Z,930.28
2019-05-29T01:51:47.406Z,930.20
2019-05-29T01:52:47.388Z,930.21
2019-05-29T01:53:47.361Z,930.17
2019-05-29T01:54:47.334Z,930.14
2019-05-29T01:55:47.320Z,930.14
2019-05-29T01:56:47.287Z,930.16
2019-05-29T01:57:47.264Z,930.21
2019-05-29T01:58:47.244Z,930.22
2019-05-29T01:59:47.221Z,930.25
2019-05-29T02:00:47.209Z,930.21
2019-05-29T02:01:47.181Z,930.19
2019-05-29T02:02:47.144Z,930.19
2019-05-29T02:03:47.135Z,930.18
2019-05-29T02:04:47.109Z,930.17
2019-05-29T02:05:47.069Z,930.11
2019-05-29T02:06:47.046Z,930.08
2019-05-29T02:07:47.041Z,930.07
2019-05-29T02:08:47.025Z,930.08
2019-05-29T02:09:46.995Z,930.15
2019-05-29T02:10:46.972Z,930.17
2019-05-29T02:11:46.948Z,930.16
2019-05-29T02:12:46.948Z,930.13
2019-05-29T02:13:46.907Z,930.22
2019-05-29T02:14:46.881Z,930.22
2019-05-29T02:15:46.858Z,930.25
2019-05-29T02:16:46.840Z,930.25
2019-05-29T02:17:46.794Z,930.28
2019-05-29T02:18:46.793Z,930.19
2019-05-29T02:19:46.771Z,930.11
2019-05-29T02:20:46.731Z,930.07
2019-05-29T02:21:46.719Z,930.06
2019-05-29T02:22:46.704Z,930.01
2019-05-29T02:23:46.679Z,929.99
2019-05-29T02:24:46.806Z,930.03
2019-05-29T02:25:46.644Z,930.05
2019-05-29T02:26:46.594Z,930.10
2019-05-29T02:27:46.570Z,930.15
2019-05-29T02:28:46.567Z,930.14
2019-05-29T02:29:46.541Z,930.15
2019-05-29T02:30:46.520Z,930.12
2019-05-29T02:31:46.494Z,930.06
2019-05-29T02:32:46.475Z,930.03
2019-05-29T02:33:46.452Z,929.96
2019-05-29T02:34:46.430Z,929.95
2019-05-29T02:35:46.386Z,929.93
2019-05-29T02:36:46.393Z,929.91
2019-05-29T02:37:46.364Z,929.93
2019-05-29T02:38:46.343Z,929.86
2019-05-29T02:39:46.317Z,929.91
2019-05-29T02:40:46.295Z,929.93
2019-05-29T02:41:46.282Z,929.94
2019-05-29T02:42:46.261Z,929.92
2019-05-29T02:43:46.230Z,929.97
2019-05-29T02:44:46.186Z,930.01
2019-05-29T02:45:54.350Z,929.99
2019-05-29T02:46:46.156Z,930.01
2019-05-29T02:47:46.137Z,929.97
2019-05-29T02:48:46.122Z,930.06
2019-05-29T02:49:46.101Z,930.08
2019-05-29T02:50:46.054Z,930.07
2019-05-29T02:51:46.052Z,930.08
2019-05-29T02:52:46.029Z,930.09
2019-05-29T02:53:46.019Z,930.16
2019-05-29T02:54:45.994Z,930.15
2019-05-29T02:55:45.957Z,930.11
2019-05-29T02:56:45.937Z,930.14
2019-05-29T02:57:45.919Z,930.11
2019-05-29T02:58:45.891Z,930.17
2019-05-29T02:59:45.864Z,930.25
2019-05-29T03:00:45.841Z,930.30
2019-05-29T03:01:45.822Z,930.36
2019-05-29T03:02:45.798Z,930.50
2019-05-29T03:03:45.793Z,930.61
2019-05-29T03:04:45.765Z,930.75
2019-05-29T03:05:45.716Z,930.80
2019-05-29T03:06:45.695Z,930.90
2019-05-29T03:07:45.670Z,930.90
2019-05-29T03:08:45.649Z,930.84
2019-05-29T03:09:45.621Z,930.91
2019-05-29T03:10:45.628Z,931.00
2019-05-29T03:11:45.604Z,931.06
2019-05-29T03:12:45.579Z,931.12
2019-05-29T03:13:45.551Z,931.19
2019-05-29T03:14:45.533Z,931.25
2019-05-29T03:15:45.503Z,931.23
2019-05-29T03:16:45.486Z,931.32
2019-05-29T03:17:45.439Z,931.14
2019-05-29T03:18:45.420Z,931.14
2019-05-29T03:19:45.413Z,931.07
2019-05-29T03:20:45.389Z,931.08
2019-05-29T03:21:45.374Z,931.14
2019-05-29T03:22:45.340Z,931.10
2019-05-29T03:23:45.318Z,931.18
2019-05-29T03:24:45.297Z,931.15
2019-05-29T03:25:45.258Z,931.08
2019-05-29T03:26:45.252Z,931.02
2019-05-29T03:27:45.220Z,930.98
2019-05-29T03:28:45.179Z,930.93
2019-05-29T03:29:45.177Z,930.86
2019-05-29T03:30:46.427Z,930.69
2019-05-29T03:31:47.665Z,930.64
2019-05-29T03:32:48.327Z,930.61
2019-05-29T03:33:49.751Z,930.68
2019-05-29T03:34:47.149Z,930.83
2019-05-29T03:35:48.243Z,930.90
2019-05-29T03:36:48.234Z,930.96
2019-05-29T03:37:44.983Z,930.93
2019-05-29T03:38:44.960Z,930.89
2019-05-29T03:39:44.933Z,930.98
2019-05-29T03:40:44.909Z,930.94
2019-05-29T03:41:44.869Z,930.93
2019-05-29T03:42:44.870Z,930.87
2019-05-29T03:43:44.841Z,930.71
2019-05-29T03:44:44.815Z,930.70
2019-05-29T03:45:44.791Z,930.67
2019-05-29T03:46:46.101Z,930.61
2019-05-29T03:47:44.737Z,930.50
2019-05-29T03:48:44.719Z,930.46
2019-05-29T03:49:44.690Z,930.43
2019-05-29T03:50:44.671Z,930.45
2019-05-29T03:51:44.648Z,930.51
2019-05-29T03:52:44.601Z,930.51
2019-05-29T03:53:44.603Z,930.50
2019-05-29T03:54:44.579Z,930.51
2019-05-29T03:55:44.549Z,930.37
2019-05-29T03:56:44.525Z,930.29
2019-05-29T03:57:44.501Z,930.19
2019-05-29T03:58:44.473Z,930.19
2019-05-29T03:59:44.438Z,930.13
2019-05-29T04:00:46.329Z,930.06
2019-05-29T04:01:44.404Z,930.01
2019-05-29T04:02:44.385Z,929.91
2019-05-29T04:03:44.353Z,929.84
2019-05-29T04:04:44.334Z,929.83
2019-05-29T04:05:44.312Z,929.88
2019-05-29T04:06:47.278Z,929.91
2019-05-29T04:07:44.260Z,929.90
2019-05-29T04:08:44.216Z,929.86
2019-05-29T04:09:44.214Z,929.87
2019-05-29T04:10:44.178Z,929.80
2019-05-29T04:11:44.160Z,929.72
2019-05-29T04:12:44.135Z,929.68
2019-05-29T04:13:44.112Z,929.70
2019-05-29T04:14:44.084Z,929.67
2019-05-29T04:15:44.055Z,929.65
2019-05-29T04:16:58.945Z,929.62
2019-05-29T04:17:44.011Z,929.56
2019-05-29T04:18:43.983Z,929.53
2019-05-29T04:19:43.968Z,929.46
2019-05-29T04:20:43.947Z,929.41
2019-05-29T04:21:43.941Z,929.26
2019-05-29T04:22:43.892Z,929.14
2019-05-29T04:23:43.893Z,929.15
2019-05-29T04:24:43.836Z,929.16
2019-05-29T04:25:43.814Z,929.16
2019-05-29T04:26:43.795Z,929.30
2019-05-29T04:27:43.786Z,929.46
2019-05-29T04:28:43.734Z,929.59
2019-05-29T04:29:43.747Z,929.52
2019-05-29T04:30:43.691Z,929.49
2019-05-29T04:31:43.671Z,929.55
2019-05-29T04:32:43.646Z,929.58
2019-05-29T04:33:43.600Z,929.43
2019-05-29T04:34:43.588Z,929.44
2019-05-29T04:35:43.571Z,929.37
2019-05-29T04:36:43.558Z,929.42
2019-05-29T04:37:43.537Z,929.30
2019-05-29T04:38:43.534Z,929.30
2019-05-29T04:39:43.492Z,929.31
2019-05-29T04:40:43.459Z,929.30
2019-05-29T04:41:43.434Z,929.30
2019-05-29T04:42:43.390Z,929.33
2019-05-29T04:43:43.374Z,929.35
2019-05-29T04:44:43.352Z,929.33
2019-05-29T04:45:43.327Z,929.29
2019-05-29T04:46:43.308Z,929.27
2019-05-29T04:47:43.285Z,929.25
2019-05-29T04:48:43.253Z,929.18
2019-05-29T04:49:43.234Z,929.07
2019-05-29T04:50:43.209Z,928.97
2019-05-29T04:51:43.185Z,928.93
2019-05-29T04:52:43.167Z,928.96
2019-05-29T04:53:43.138Z,929.05
2019-05-29T04:54:43.111Z,929.05
2019-05-29T04:55:43.089Z,929.15
2019-05-29T04:56:43.070Z,929.08
2019-05-29T04:57:43.027Z,929.00
2019-05-29T04:58:43.022Z,929.02
2019-05-29T04:59:42.997Z,929.02
2019-05-29T05:00:58.168Z,928.97
2019-05-29T05:01:42.944Z,928.93
2019-05-29T05:02:42.909Z,928.96
2019-05-29T05:03:42.890Z,928.89
2019-05-29T05:04:42.848Z,928.87
2019-05-29T05:05:42.839Z,928.86
2019-05-29T05:06:42.823Z,928.80
2019-05-29T05:07:42.776Z,928.79
2019-05-29T05:08:42.751Z,928.76
2019-05-29T05:09:42.734Z,928.77
2019-05-29T05:10:42.722Z,928.78
2019-05-29T05:11:42.698Z,928.81
2019-05-29T05:12:42.669Z,928.74
2019-05-29T05:13:42.654Z,928.71
2019-05-29T05:14:42.626Z,928.64
2019-05-29T05:15:42.600Z,928.72
2019-05-29T05:16:42.586Z,928.71
2019-05-29T05:17:42.550Z,928.75
2019-05-29T05:18:42.526Z,928.69
2019-05-29T05:19:42.504Z,928.65
2019-05-29T05:20:42.486Z,928.67
2019-05-29T05:21:42.457Z,928.64
2019-05-29T05:22:42.435Z,928.61
2019-05-29T05:23:42.412Z,928.60
2019-05-29T05:24:44.039Z,928.58
2019-05-29T05:25:42.422Z,928.60
2019-05-29T05:26:42.321Z,928.58
2019-05-29T05:27:42.321Z,928.43
2019-05-29T05:28:45.131Z,928.57
2019-05-29T05:29:42.269Z,928.65
2019-05-29T05:30:42.247Z,928.65
2019-05-29T05:31:42.226Z,928.63
2019-05-29T05:32:42.196Z,928.74
2019-05-29T05:33:42.174Z,928.77
2019-05-29T05:34:42.144Z,928.85
2019-05-29T05:35:42.127Z,928.88
2019-05-29T05:36:42.098Z,928.64
2019-05-29T05:37:42.076Z,928.59
2019-05-29T05:38:42.062Z,928.63
2019-05-29T05:39:42.027Z,928.66
2019-05-29T05:40:43.250Z,928.66
2019-05-29T05:41:41.983Z,928.72
2019-05-29T05:42:41.949Z,928.64
2019-05-29T05:43:41.931Z,928.74
2019-05-29T05:44:41.908Z,928.86
2019-05-29T05:45:41.882Z,928.83
2019-05-29T05:46:41.860Z,928.87
2019-05-29T05:47:53.664Z,928.90
2019-05-29T05:48:41.856Z,928.92
2019-05-29T05:49:41.888Z,928.94
2019-05-29T05:50:41.767Z,928.97
2019-05-29T05:51:44.364Z,928.98
2019-05-29T05:52:41.768Z,928.97
2019-05-29T05:53:41.918Z,929.01
2019-05-29T05:54:41.698Z,929.03
2019-05-29T05:55:41.862Z,929.01
2019-05-29T05:56:41.827Z,928.95
2019-05-29T05:57:41.902Z,929.02
2019-05-29T05:58:42.259Z,928.95
2019-05-29T05:59:42.042Z,928.99
2019-05-29T06:00:42.091Z,928.97
2019-05-29T06:01:42.086Z,929.00
2019-05-29T06:02:42.138Z,929.10
2019-05-29T06:03:42.482Z,929.11
2019-05-29T06:04:42.161Z,929.12
2019-05-29T06:05:42.295Z,929.11
2019-05-29T06:06:42.341Z,929.15
2019-05-29T06:07:42.505Z,929.21
2019-05-29T06:08:42.475Z,929.23
2019-05-29T06:09:42.497Z,929.25
2019-05-29T06:10:42.398Z,929.26
2019-05-29T06:11:42.493Z,929.36
2019-05-29T06:12:42.776Z,929.39
2019-05-29T06:13:42.562Z,929.43
2019-05-29T06:14:41.196Z,929.46
2019-05-29T06:16:14.376Z,929.47
2019-05-29T06:16:41.142Z,929.47
2019-05-29T06:17:41.128Z,929.44
2019-05-29T06:18:41.082Z,929.50
2019-05-29T06:19:41.234Z,929.49
2019-05-29T06:20:41.078Z,929.50
2019-05-29T06:21:41.034Z,929.57
2019-05-29T06:22:41.192Z,929.54
2019-05-29T06:23:41.160Z,929.61
2019-05-29T06:24:41.073Z,929.64
2019-05-29T06:25:42.467Z,929.70
2019-05-29T06:26:41.116Z,929.73
2019-05-29T06:27:41.359Z,929.78
2019-05-29T06:28:41.298Z,929.79
2019-05-29T06:29:41.294Z,929.87
2019-05-29T06:30:42.576Z,929.87
2019-05-29T06:31:41.462Z,929.81
2019-05-29T06:32:41.591Z,929.76
2019-05-29T06:33:41.532Z,929.74
2019-05-29T06:34:41.608Z,929.78
2019-05-29T06:35:41.707Z,929.73
2019-05-29T06:36:41.586Z,929.84
2019-05-29T06:37:41.752Z,929.86
2019-05-29T06:38:42.126Z,929.86
2019-05-29T06:39:41.708Z,929.87
2019-05-29T06:40:41.976Z,929.92
2019-05-29T06:41:41.962Z,929.89
2019-05-29T06:42:41.877Z,929.93
2019-05-29T06:43:40.485Z,929.84
2019-05-29T06:44:41.950Z,929.90
2019-05-29T06:45:40.447Z,929.90
2019-05-29T06:46:40.592Z,929.88
2019-05-29T06:47:40.820Z,929.82
2019-05-29T06:48:50.109Z,929.88
2019-05-29T06:49:40.362Z,929.91
2019-05-29T06:50:41.493Z,929.89
2019-05-29T06:51:41.321Z,929.94
2019-05-29T06:52:41.366Z,929.99
2019-05-29T06:53:41.689Z,929.98
2019-05-29T06:54:40.234Z,929.94
2019-05-29T06:55:40.215Z,929.95
2019-05-29T06:56:40.190Z,930.01
2019-05-29T06:57:40.368Z,930.08
2019-05-29T06:58:40.142Z,930.13
2019-05-29T06:59:40.509Z,930.11
2019-05-29T07:00:41.173Z,930.00
2019-05-29T07:01:41.441Z,929.89
2019-05-29T07:02:40.721Z,929.80
2019-05-29T07:03:40.033Z,929.80
2019-05-29T07:04:40.453Z,929.90
2019-05-29T07:05:39.974Z,929.90
2019-05-29T07:06:40.685Z,930.03
2019-05-29T07:07:40.345Z,930.08
2019-05-29T07:08:45.115Z,930.09
2019-05-29T07:09:40.937Z,930.11
2019-05-29T07:10:40.304Z,930.12
2019-05-29T07:11:39.833Z,930.12
2019-05-29T07:12:40.319Z,930.07
2019-05-29T07:13:42.799Z,930.13
2019-05-29T07:14:40.280Z,930.17
2019-05-29T07:15:40.783Z,930.28
2019-05-29T07:16:49.964Z,930.30
2019-05-29T07:17:40.450Z,930.23
2019-05-29T07:18:45.318Z,930.27
2019-05-29T07:19:54.006Z,930.25
2019-05-29T07:20:40.656Z,930.26
2019-05-29T07:21:40.758Z,930.28
2019-05-29T07:22:40.790Z,930.32
2019-05-29T07:23:41.172Z,930.30
2019-05-29T07:24:41.108Z,930.20
2019-05-29T07:25:40.814Z,930.03
2019-05-29T07:26:39.484Z,929.89
2019-05-29T07:27:39.454Z,929.87
2019-05-29T07:28:58.879Z,929.73
2019-05-29T07:29:39.400Z,929.70
2019-05-29T07:30:39.387Z,929.72
2019-05-29T07:31:39.355Z,929.69
2019-05-29T07:32:40.990Z,929.65
2019-05-29T07:33:39.283Z,929.56
2019-05-29T07:34:51.130Z,929.70
2019-05-29T07:35:39.348Z,929.88
2019-05-29T07:36:39.935Z,929.95
2019-05-29T07:37:39.711Z,929.92
2019-05-29T07:38:39.635Z,929.88
2019-05-29T07:39:39.490Z,929.82
2019-05-29T07:40:40.643Z,929.84
2019-05-29T07:41:39.571Z,929.88
2019-05-29T07:42:41.573Z,929.90
2019-05-29T07:43:39.687Z,929.93
2019-05-29T07:44:39.951Z,930.05
2019-05-29T07:45:40.568Z,930.05
2019-05-29T07:46:40.042Z,930.03
2019-05-29T07:47:40.451Z,930.05
2019-05-29T07:48:40.261Z,929.95
2019-05-29T07:49:42.731Z,929.85
2019-05-29T07:50:39.961Z,929.76
2019-05-29T07:51:40.470Z,929.67
2019-05-29T07:52:38.850Z,929.58
2019-05-29T07:53:38.818Z,929.54
2019-05-29T07:54:39.986Z,929.55
2019-05-29T07:55:38.769Z,929.50
2019-05-29T07:56:38.729Z,929.48
2019-05-29T07:57:38.965Z,929.46
2019-05-29T07:58:38.778Z,929.39
2019-05-29T07:59:38.677Z,929.40
2019-05-29T08:01:02.634Z,929.37
2019-05-29T08:01:38.734Z,929.36
2019-05-29T08:02:39.366Z,929.36
2019-05-29T08:03:39.280Z,929.29
2019-05-29T08:04:38.918Z,929.19
2019-05-29T08:05:39.200Z,929.13
2019-05-29T08:06:39.474Z,929.07
2019-05-29T08:07:39.410Z,929.00
2019-05-29T08:08:39.144Z,928.93
2019-05-29T08:09:39.309Z,928.91
2019-05-29T08:10:40.006Z,928.96
2019-05-29T08:11:39.493Z,928.96
2019-05-29T08:12:42.225Z,928.94
2019-05-29T08:13:39.443Z,928.95
2019-05-29T08:14:39.596Z,928.95
2019-05-29T08:15:52.967Z,928.95
2019-05-29T08:16:38.267Z,928.92
2019-05-29T08:17:38.245Z,929.02
2019-05-29T08:18:38.241Z,929.11
2019-05-29T08:19:53.529Z,929.15
2019-05-29T08:20:38.151Z,929.17
2019-05-29T08:21:38.129Z,929.12
2019-05-29T08:22:38.120Z,929.20
2019-05-29T08:23:38.100Z,929.18
2019-05-29T08:24:38.075Z,929.22
2019-05-29T08:25:38.044Z,929.29
2019-05-29T08:26:38.021Z,929.36
2019-05-29T08:27:37.998Z,929.46
2019-05-29T08:28:37.960Z,929.46
2019-05-29T08:29:37.941Z,929.38
2019-05-29T08:30:37.910Z,929.30
2019-05-29T08:31:37.909Z,929.18
2019-05-29T08:32:37.899Z,929.13
2019-05-29T08:33:37.836Z,929.15
2019-05-29T08:34:37.844Z,929.16
2019-05-29T08:35:37.809Z,929.15
2019-05-29T08:36:37.803Z,929.21
2019-05-29T08:37:37.763Z,929.28
2019-05-29T08:38:37.737Z,929.42
2019-05-29T08:39:37.711Z,929.43
2019-05-29T08:40:37.685Z,929.47
2019-05-29T08:41:37.670Z,929.49
2019-05-29T08:42:37.668Z,929.55
2019-05-29T08:43:37.606Z,929.54
2019-05-29T08:44:37.599Z,929.58
2019-05-29T08:45:37.571Z,929.62
2019-05-29T08:46:37.548Z,929.50
2019-05-29T08:47:37.525Z,929.58
2019-05-29T08:48:37.496Z,929.55
2019-05-29T08:49:37.477Z,929.53
2019-05-29T08:50:37.450Z,929.50
2019-05-29T08:51:37.429Z,929.48
2019-05-29T08:52:37.404Z,929.52
2019-05-29T08:53:37.380Z,929.58
2019-05-29T08:54:37.355Z,929.60
2019-05-29T08:55:37.330Z,929.63
2019-05-29T08:56:37.291Z,929.64
2019-05-29T08:57:37.304Z,929.62
2019-05-29T08:58:38.037Z,929.60
2019-05-29T08:59:37.219Z,929.63
2019-05-29T09:00:37.217Z,929.66
2019-05-29T09:01:37.181Z,929.68
2019-05-29T09:02:37.162Z,929.69
2019-05-29T09:03:37.140Z,929.76
2019-05-29T09:04:37.126Z,929.73
2019-05-29T09:05:37.086Z,929.76
2019-05-29T09:06:37.063Z,929.78
2019-05-29T09:07:37.049Z,929.78
2019-05-29T09:08:37.024Z,929.78
2019-05-29T09:09:36.991Z,929.78
2019-05-29T09:10:36.973Z,929.80
2019-05-29T09:11:36.944Z,929.85
2019-05-29T09:12:36.926Z,929.86
2019-05-29T09:13:36.903Z,929.95
2019-05-29T09:14:36.875Z,930.00
2019-05-29T09:15:36.856Z,930.11
2019-05-29T09:16:36.850Z,930.12
2019-05-29T09:17:36.806Z,930.17
2019-05-29T09:18:36.792Z,930.12
2019-05-29T09:19:36.868Z,930.12
2019-05-29T09:21:00.114Z,930.17
2019-05-29T09:21:36.709Z,930.19
2019-05-29T09:22:36.662Z,930.21
2019-05-29T09:23:36.655Z,930.18
2019-05-29T09:24:36.640Z,930.16
2019-05-29T09:25:36.613Z,930.23
2019-05-29T09:26:36.589Z,930.19
2019-05-29T09:27:36.563Z,930.22
2019-05-29T09:28:36.520Z,930.28
2019-05-29T09:29:36.516Z,930.29
2019-05-29T09:30:36.490Z,930.28
2019-05-29T09:31:36.468Z,930.27
2019-05-29T09:32:49.473Z,930.28
2019-05-29T09:33:36.459Z,930.27
2019-05-29T09:34:36.397Z,930.34
2019-05-29T09:35:36.377Z,930.31
2019-05-29T09:36:36.331Z,930.36
2019-05-29T09:37:36.326Z,930.36
2019-05-29T09:38:36.306Z,930.36
2019-05-29T09:39:36.276Z,930.40
2019-05-29T09:40:36.266Z,930.47
2019-05-29T09:41:36.247Z,930.51
2019-05-29T09:42:36.188Z,930.59
2019-05-29T09:43:36.187Z,930.60
2019-05-29T09:44:39.320Z,930.61
2019-05-29T09:45:36.138Z,930.64
2019-05-29T09:46:36.114Z,930.66
2019-05-29T09:47:36.093Z,930.68
2019-05-29T09:48:48.899Z,930.78
2019-05-29T09:49:36.044Z,930.73
2019-05-29T09:50:49.635Z,930.69
2019-05-29T09:51:36.003Z,930.72
2019-05-29T09:52:36.003Z,930.70
2019-05-29T09:53:35.952Z,930.64
2019-05-29T09:54:36.042Z,930.69
2019-05-29T09:55:35.899Z,930.74
2019-05-29T09:56:35.891Z,930.80
2019-05-29T09:57:35.858Z,930.90
2019-05-29T09:58:35.836Z,930.85
2019-05-29T09:59:35.820Z,930.87
2019-05-29T10:00:35.786Z,930.85
2019-05-29T10:01:35.741Z,930.84
2019-05-29T10:02:35.739Z,930.84
2019-05-29T10:03:35.714Z,930.79
2019-05-29T10:04:35.691Z,930.83
2019-05-29T10:05:35.673Z,930.83
2019-05-29T10:06:35.642Z,930.83
2019-05-29T10:07:35.603Z,930.91
2019-05-29T10:08:35.594Z,930.95
2019-05-29T10:09:35.573Z,930.94
2019-05-29T10:10:35.554Z,930.93
2019-05-29T10:11:35.532Z,930.92
2019-05-29T10:12:35.498Z,930.93
2019-05-29T10:13:35.480Z,930.91
2019-05-29T10:14:35.437Z,930.87
2019-05-29T10:15:35.439Z,930.82
2019-05-29T10:16:35.438Z,930.73
2019-05-29T10:17:35.384Z,930.71
2019-05-29T10:18:35.358Z,930.75
2019-05-29T10:19:35.333Z,930.83
2019-05-29T10:20:35.323Z,930.79
2019-05-29T10:21:40.846Z,930.81
2019-05-29T10:22:35.270Z,930.74
2019-05-29T10:23:35.251Z,930.78
2019-05-29T10:24:35.221Z,930.72
2019-05-29T10:25:35.305Z,930.98
2019-05-29T10:26:35.177Z,930.94
2019-05-29T10:27:35.150Z,930.49
2019-05-29T10:28:49.934Z,930.49
2019-05-29T10:29:35.104Z,930.52
2019-05-29T10:30:35.078Z,930.56
2019-05-29T10:31:35.061Z,930.60
2019-05-29T10:32:35.038Z,930.56
2019-05-29T10:33:35.018Z,930.60
2019-05-29T10:34:34.980Z,930.64
2019-05-29T10:35:34.966Z,930.57
2019-05-29T10:36:34.921Z,930.65
2019-05-29T10:37:34.919Z,930.69
2019-05-29T10:38:34.885Z,930.74
2019-05-29T10:39:34.871Z,930.73
2019-05-29T10:40:34.848Z,930.77
2019-05-29T10:41:34.822Z,930.72
2019-05-29T10:42:34.821Z,930.73
2019-05-29T10:43:35.123Z,930.72
2019-05-29T10:44:34.762Z,930.79
2019-05-29T10:45:34.741Z,930.84
2019-05-29T10:46:34.715Z,930.90
2019-05-29T10:47:34.687Z,930.85
2019-05-29T10:48:34.663Z,930.77
2019-05-29T10:49:34.634Z,930.81
2019-05-29T10:50:34.613Z,931.49
2019-05-29T10:51:34.597Z,930.77
2019-05-29T10:52:34.550Z,930.74
2019-05-29T10:53:34.539Z,930.79
2019-05-29T10:54:34.537Z,930.80
2019-05-29T10:55:34.504Z,930.77
2019-05-29T10:56:34.484Z,930.72
2019-05-29T10:57:34.459Z,930.77
2019-05-29T10:58:47.905Z,930.74
2019-05-29T10:59:34.401Z,930.80
2019-05-29T11:00:38.290Z,930.82
2019-05-29T11:01:34.375Z,930.81
2019-05-29T11:02:34.351Z,930.96
2019-05-29T11:03:34.323Z,931.11
2019-05-29T11:04:34.302Z,931.23
2019-05-29T11:05:34.289Z,931.24
2019-05-29T11:06:34.262Z,931.21
2019-05-29T11:07:34.238Z,931.35
2019-05-29T11:08:34.213Z,931.36
2019-05-29T11:09:44.028Z,931.43
2019-05-29T11:10:34.175Z,931.46
2019-05-29T11:11:34.153Z,931.39
2019-05-29T11:12:34.133Z,931.37
2019-05-29T11:13:34.112Z,931.36
2019-05-29T11:14:34.100Z,931.32
2019-05-29T11:15:34.076Z,931.28
2019-05-29T11:16:34.057Z,931.27
2019-05-29T11:17:34.040Z,931.32
2019-05-29T11:18:34.011Z,931.32
2019-05-29T11:19:34.001Z,931.37
2019-05-29T11:20:33.984Z,931.39
2019-05-29T11:21:33.958Z,931.46
2019-05-29T11:22:33.915Z,931.46
2019-05-29T11:23:33.920Z,931.54
2019-05-29T11:24:33.902Z,931.50
2019-05-29T11:25:33.885Z,931.49
2019-05-29T11:26:33.885Z,931.58
2019-05-29T11:27:33.840Z,931.55
2019-05-29T11:28:33.821Z,931.55
2019-05-29T11:29:33.801Z,931.55
2019-05-29T11:30:33.774Z,931.56
2019-05-29T11:31:33.760Z,931.54
2019-05-29T11:32:33.742Z,931.55
2019-05-29T11:33:33.719Z,931.58
2019-05-29T11:34:33.700Z,931.58
2019-05-29T11:35:33.672Z,931.56
2019-05-29T11:36:33.639Z,931.60
2019-05-29T11:37:33.629Z,931.61
2019-05-29T11:38:33.612Z,931.56
2019-05-29T11:39:33.589Z,931.55
2019-05-29T11:40:33.707Z,931.49
2019-05-29T11:41:33.558Z,931.50
2019-05-29T11:42:33.545Z,931.54
2019-05-29T11:43:33.515Z,931.48
2019-05-29T11:44:33.518Z,931.53
2019-05-29T11:45:35.650Z,931.50
2019-05-29T11:46:33.445Z,931.45
2019-05-29T11:47:33.444Z,931.51
2019-05-29T11:48:33.405Z,931.55
2019-05-29T11:49:33.383Z,931.58
2019-05-29T11:50:33.357Z,931.56
2019-05-29T11:51:33.345Z,931.59
2019-05-29T11:52:42.523Z,931.54
2019-05-29T11:53:33.297Z,931.53
2019-05-29T11:54:33.277Z,931.50
2019-05-29T11:55:33.264Z,931.47
2019-05-29T11:56:33.228Z,931.42
2019-05-29T11:57:33.296Z,931.39
2019-05-29T11:58:33.256Z,931.46
2019-05-29T11:59:33.151Z,931.50
2019-05-29T12:00:33.145Z,931.51
2019-05-29T12:01:49.067Z,931.53
2019-05-29T12:02:33.605Z,931.66
2019-05-29T12:03:33.082Z,931.83
2019-05-29T12:04:33.059Z,931.86
2019-05-29T12:05:33.037Z,931.67
2019-05-29T12:06:33.014Z,931.67
2019-05-29T12:07:33.008Z,931.59
2019-05-29T12:08:32.975Z,931.58
2019-05-29T12:09:34.101Z,931.56
2019-05-29T12:10:32.930Z,931.65
2019-05-29T12:11:32.901Z,931.85
2019-05-29T12:12:32.885Z,932.26
2019-05-29T12:13:32.864Z,932.35
2019-05-29T12:14:32.842Z,932.50
2019-05-29T12:15:32.822Z,932.76
2019-05-29T12:16:32.780Z,932.91
2019-05-29T12:17:32.811Z,933.56
2019-05-29T12:18:32.761Z,932.58
2019-05-29T12:19:32.743Z,932.53
2019-05-29T12:20:32.722Z,933.47
2019-05-29T12:21:32.705Z,933.45
2019-05-29T12:22:32.676Z,933.29
2019-05-29T12:23:32.662Z,933.00
2019-05-29T12:24:32.629Z,933.31
2019-05-29T12:25:32.629Z,933.44
2019-05-29T12:26:32.610Z,933.41
2019-05-29T12:27:32.592Z,933.52
2019-05-29T12:28:32.602Z,933.51